createdAt,value
2023-02-28T00:01:51.541Z,-3.99
2023-02-28T00:05:02.254Z,-3.95
2023-02-28T00:08:04.811Z,-4.01
2023-02-28T00:11:10.883Z,-4.08
2023-02-28T00:14:13.382Z,-4.14
2023-02-28T00:17:17.370Z,-4.15
2023-02-28T00:20:20.417Z,-4.22
2023-02-28T00:23:22.850Z,-4.23
2023-02-28T00:26:25.269Z,-4.21
2023-02-28T00:29:27.619Z,-4.21
2023-02-28T00:32:30.713Z,-4.22
2023-02-28T00:35:33.127Z,-4.24
2023-02-28T00:38:35.705Z,-4.31
2023-02-28T00:41:38.057Z,-4.25
2023-02-28T00:44:40.441Z,-4.32
2023-02-28T00:47:42.873Z,-4.23
2023-02-28T00:50:45.387Z,-4.20
2023-02-28T00:53:47.740Z,-4.16
2023-02-28T00:56:50.317Z,-4.17
2023-02-28T00:59:55.273Z,-4.32
2023-02-28T01:02:57.987Z,-4.36
2023-02-28T01:06:00.674Z,-4.34
2023-02-28T01:09:04.092Z,-4.38
2023-02-28T01:12:06.870Z,-4.43
2023-02-28T01:15:12.481Z,-4.44
2023-02-28T01:18:14.960Z,-4.40
2023-02-28T01:21:19.918Z,-4.29
2023-02-28T01:24:22.304Z,-4.33
2023-02-28T01:27:24.819Z,-4.36
2023-02-28T01:30:28.581Z,-4.40
2023-02-28T01:33:31.387Z,-4.50
2023-02-28T01:36:35.520Z,-4.51
2023-02-28T01:39:37.886Z,-4.41
2023-02-28T01:42:40.229Z,-4.41
2023-02-28T01:45:43.053Z,-4.45
2023-02-28T01:49:05.685Z,-4.61
2023-02-28T01:52:08.507Z,-4.57
2023-02-28T01:55:11.992Z,-4.56
2023-02-28T01:58:14.795Z,-4.46
2023-02-28T02:01:22.648Z,-4.49
2023-02-28T02:04:28.710Z,-4.53
2023-02-28T02:07:34.180Z,-4.80
2023-02-28T02:10:45.799Z,-4.63
2023-02-28T02:14:04.639Z,-4.65
2023-02-28T02:17:24.847Z,-4.65
2023-02-28T02:20:53.613Z,-4.64
2023-02-28T02:24:20.645Z,-4.44
2023-02-28T02:27:58.629Z,-4.68
2023-02-28T02:31:16.020Z,-4.86
2023-02-28T02:34:44.337Z,-4.81
2023-02-28T02:38:03.894Z,-4.82
2023-02-28T02:41:29.498Z,-4.87
2023-02-28T02:44:51.850Z,-4.83
2023-02-28T02:47:55.158Z,-4.86
2023-02-28T02:51:01.995Z,-4.88
2023-02-28T02:54:12.016Z,-4.84
2023-02-28T02:57:21.832Z,-4.85
2023-02-28T03:00:32.197Z,-4.86
2023-02-28T03:03:35.018Z,-4.91
2023-02-28T03:06:38.180Z,-4.89
2023-02-28T03:09:40.782Z,-4.99
2023-02-28T03:12:52.218Z,-4.87
2023-02-28T03:16:07.543Z,-4.86
2023-02-28T03:19:28.328Z,-4.87
2023-02-28T03:22:36.130Z,-4.96
2023-02-28T03:25:47.630Z,-5.03
2023-02-28T03:28:58.296Z,-5.13
2023-02-28T03:32:22.703Z,-5.06
2023-02-28T03:35:28.670Z,-5.04
2023-02-28T03:38:47.764Z,-5.24
2023-02-28T03:41:54.701Z,-5.12
2023-02-28T03:45:02.825Z,-5.05
2023-02-28T03:48:17.965Z,-5.05
2023-02-28T03:51:23.153Z,-5.22
2023-02-28T03:54:29.968Z,-5.07
2023-02-28T03:57:42.423Z,-5.07
2023-02-28T04:00:48.624Z,-5.16
2023-02-28T04:03:51.258Z,-5.22
2023-02-28T04:07:03.265Z,-5.21
2023-02-28T04:10:06.660Z,-5.25
2023-02-28T04:13:09.026Z,-5.22
2023-02-28T04:16:18.830Z,-5.26
2023-02-28T04:19:27.021Z,-5.13
2023-02-28T04:22:29.253Z,-5.14
2023-02-28T04:25:31.665Z,-5.08
2023-02-28T04:28:34.912Z,-5.15
2023-02-28T04:31:37.451Z,-5.10
2023-02-28T04:34:40.043Z,-5.11
2023-02-28T04:37:42.358Z,-5.19
2023-02-28T04:40:44.772Z,-5.41
2023-02-28T04:43:47.128Z,-5.10
2023-02-28T04:46:50.325Z,-5.14
2023-02-28T04:49:52.726Z,-5.15
2023-02-28T04:52:55.763Z,-5.11
2023-02-28T04:55:59.293Z,-5.12
2023-02-28T04:59:01.583Z,-5.09
2023-02-28T05:02:08.116Z,-5.27
2023-02-28T05:05:10.801Z,-5.24
2023-02-28T05:08:13.201Z,-5.28
2023-02-28T05:11:27.602Z,-5.48
2023-02-28T05:14:30.288Z,-5.41
2023-02-28T05:17:32.963Z,-5.46
2023-02-28T05:20:35.249Z,-5.39
2023-02-28T05:23:37.712Z,-5.29
2023-02-28T05:26:42.558Z,-5.27
2023-02-28T05:29:45.040Z,-5.36
2023-02-28T05:32:52.085Z,-5.31
2023-02-28T05:35:54.626Z,-5.33
2023-02-28T05:38:57.020Z,-5.32
2023-02-28T05:41:59.436Z,-5.37
2023-02-28T05:45:01.918Z,-5.46
2023-02-28T05:48:04.595Z,-5.36
2023-02-28T05:51:07.956Z,-5.36
2023-02-28T05:54:13.513Z,-5.39
2023-02-28T05:57:24.310Z,-5.21
2023-02-28T06:00:27.428Z,-5.24
2023-02-28T06:03:29.900Z,-5.20
2023-02-28T06:06:32.523Z,-5.19
2023-02-28T06:09:35.016Z,-5.16
2023-02-28T06:12:37.474Z,-5.04
2023-02-28T06:15:40.268Z,-5.07
2023-02-28T06:18:42.957Z,-5.04
2023-02-28T06:21:45.405Z,-5.02
2023-02-28T06:24:47.692Z,-4.75
2023-02-28T06:27:50.324Z,-4.69
2023-02-28T06:30:53.510Z,-4.67
2023-02-28T06:33:57.150Z,-4.76
2023-02-28T06:37:03.231Z,-4.70
2023-02-28T06:40:07.992Z,-4.70
2023-02-28T06:43:10.352Z,-4.61
2023-02-28T06:46:15.792Z,-4.36
2023-02-28T06:49:18.271Z,-4.26
2023-02-28T06:52:20.658Z,-4.24
2023-02-28T06:55:23.051Z,-4.05
2023-02-28T06:58:25.566Z,-3.86
2023-02-28T07:01:29.438Z,-3.75
2023-02-28T07:04:32.194Z,-3.53
2023-02-28T07:07:35.277Z,-3.35
2023-02-28T07:10:41.051Z,-3.29
2023-02-28T07:13:43.448Z,-3.18
2023-02-28T07:16:46.663Z,-3.05
2023-02-28T07:19:49.117Z,-2.86
2023-02-28T07:22:57.343Z,-2.68
2023-02-28T07:25:59.748Z,-2.42
2023-02-28T07:29:03.288Z,-2.37
2023-02-28T07:32:06.035Z,-2.35
2023-02-28T07:35:08.968Z,-2.31
2023-02-28T07:38:11.684Z,-2.06
2023-02-28T07:41:14.166Z,-1.93
2023-02-28T07:44:16.754Z,-2.17
2023-02-28T07:47:19.111Z,-1.91
2023-02-28T07:50:21.608Z,-2.06
2023-02-28T07:53:24.104Z,-2.05
2023-02-28T07:56:26.582Z,-2.04
2023-02-28T07:59:31.254Z,-1.96
2023-02-28T08:02:35.012Z,-1.83
2023-02-28T08:05:41.296Z,-1.70
2023-02-28T08:08:43.706Z,-1.72
2023-02-28T08:11:46.084Z,-1.71
2023-02-28T08:14:48.383Z,-1.77
2023-02-28T08:17:50.656Z,-1.60
2023-02-28T08:20:53.054Z,-1.70
2023-02-28T08:23:55.475Z,-1.70
2023-02-28T08:26:58.122Z,-1.64
2023-02-28T08:30:00.443Z,-1.49
2023-02-28T08:33:03.040Z,-1.62
2023-02-28T08:36:05.848Z,-1.77
2023-02-28T08:39:08.819Z,-1.70
2023-02-28T08:42:11.450Z,-1.80
2023-02-28T08:45:15.260Z,-1.65
2023-02-28T08:48:19.578Z,-1.57
2023-02-28T08:51:27.784Z,-1.40
2023-02-28T08:54:32.506Z,-1.12
2023-02-28T08:57:34.896Z,-1.27
2023-02-28T09:00:37.834Z,-1.19
2023-02-28T09:03:42.541Z,-1.28
2023-02-28T09:06:45.576Z,-1.27
2023-02-28T09:09:57.912Z,-1.06
2023-02-28T09:13:00.306Z,-0.88
2023-02-28T09:16:04.235Z,-0.86
2023-02-28T09:19:06.465Z,-1.09
2023-02-28T09:22:08.840Z,-0.94
2023-02-28T09:25:11.179Z,-0.99
2023-02-28T09:28:13.493Z,-0.74
2023-02-28T09:31:22.162Z,-0.71
2023-02-28T09:34:24.612Z,-0.60
2023-02-28T09:37:32.133Z,-0.61
2023-02-28T09:40:37.940Z,-0.29
2023-02-28T09:43:43.066Z,-0.07
2023-02-28T09:46:48.978Z,-0.22
2023-02-28T09:49:51.714Z,0.05
2023-02-28T09:52:55.181Z,-0.07
2023-02-28T09:56:00.749Z,0.14
2023-02-28T09:59:07.084Z,0.11
2023-02-28T10:02:12.691Z,0.41
2023-02-28T10:05:18.301Z,0.53
2023-02-28T10:08:46.255Z,0.59
2023-02-28T10:11:48.957Z,0.60
2023-02-28T10:14:53.636Z,0.63
2023-02-28T10:18:08.565Z,0.59
2023-02-28T10:21:21.257Z,0.71
2023-02-28T10:24:37.456Z,0.75
2023-02-28T10:27:39.880Z,0.78
2023-02-28T10:30:45.258Z,0.91
2023-02-28T10:33:47.911Z,0.93
2023-02-28T10:36:51.159Z,1.07
2023-02-28T10:39:53.561Z,0.95
2023-02-28T10:43:05.793Z,1.25
2023-02-28T10:46:10.971Z,1.08
2023-02-28T10:49:23.466Z,1.05
2023-02-28T10:52:38.468Z,1.44
2023-02-28T10:55:40.842Z,0.92
2023-02-28T10:58:58.340Z,1.35
2023-02-28T11:02:01.048Z,1.81
2023-02-28T11:05:03.618Z,1.76
2023-02-28T11:08:15.952Z,1.44
2023-02-28T11:11:19.333Z,2.02
2023-02-28T11:14:23.800Z,1.79
2023-02-28T11:17:28.990Z,1.50
2023-02-28T11:20:34.344Z,1.70
2023-02-28T11:23:38.720Z,1.88
2023-02-28T11:26:46.632Z,2.14
2023-02-28T11:29:49.335Z,1.80
2023-02-28T11:32:51.980Z,1.94
2023-02-28T11:35:54.931Z,2.05
2023-02-28T11:39:11.919Z,2.05
2023-02-28T11:42:19.913Z,1.91
2023-02-28T11:45:43.941Z,2.15
2023-02-28T11:48:55.228Z,2.06
2023-02-28T11:52:15.966Z,2.27
2023-02-28T11:55:21.035Z,2.43
2023-02-28T11:58:33.007Z,2.35
2023-02-28T12:01:48.477Z,2.68
2023-02-28T12:05:14.814Z,2.67
2023-02-28T12:08:35.875Z,2.61
2023-02-28T12:11:54.996Z,2.85
2023-02-28T12:15:51.255Z,3.10
2023-02-28T12:19:24.234Z,3.22
2023-02-28T12:22:31.392Z,3.23
2023-02-28T12:26:05.693Z,3.19
2023-02-28T12:29:30.655Z,3.37
2023-02-28T12:32:40.046Z,3.63
2023-02-28T12:35:56.802Z,3.31
2023-02-28T12:39:11.632Z,3.61
2023-02-28T12:42:27.204Z,3.34
2023-02-28T12:45:44.086Z,4.12
2023-02-28T12:48:49.973Z,3.85
2023-02-28T12:51:52.669Z,3.78
2023-02-28T12:55:00.033Z,3.96
2023-02-28T12:58:31.405Z,3.87
2023-02-28T13:01:44.761Z,4.16
2023-02-28T13:05:24.433Z,4.27
2023-02-28T13:08:57.567Z,4.47
2023-02-28T13:12:00.612Z,4.26
2023-02-28T13:15:06.328Z,4.38
2023-02-28T13:18:38.413Z,4.33
2023-02-28T13:21:45.696Z,4.38
2023-02-28T13:24:55.337Z,4.20
2023-02-28T13:27:58.161Z,4.59
2023-02-28T13:31:01.389Z,4.38
2023-02-28T13:34:13.079Z,4.41
2023-02-28T13:37:21.396Z,4.50
2023-02-28T13:40:38.093Z,4.40
2023-02-28T13:44:18.561Z,4.29
2023-02-28T13:47:26.112Z,4.65
2023-02-28T13:50:28.428Z,4.64
2023-02-28T13:54:09.032Z,4.50
2023-02-28T13:57:17.085Z,4.59
2023-02-28T14:00:37.857Z,4.59
2023-02-28T14:04:33.571Z,4.88
2023-02-28T14:07:45.578Z,4.56
2023-02-28T14:10:51.274Z,4.54
2023-02-28T14:13:53.734Z,4.64
2023-02-28T14:16:56.329Z,4.48
2023-02-28T14:19:59.587Z,4.71
2023-02-28T14:23:06.726Z,4.61
2023-02-28T14:26:31.087Z,4.87
2023-02-28T14:29:52.302Z,4.49
2023-02-28T14:33:13.073Z,4.77
2023-02-28T14:36:35.037Z,4.62
2023-02-28T14:39:38.040Z,5.08
2023-02-28T14:42:44.938Z,5.66
2023-02-28T14:45:51.937Z,6.24
2023-02-28T14:48:54.312Z,6.39
2023-02-28T14:52:17.041Z,6.65
2023-02-28T14:55:29.765Z,5.74
2023-02-28T14:58:34.534Z,5.35
2023-02-28T15:01:37.067Z,5.13
2023-02-28T15:04:39.571Z,4.66
2023-02-28T15:07:41.994Z,4.88
2023-02-28T15:11:13.397Z,4.45
2023-02-28T15:14:20.164Z,4.25
2023-02-28T15:17:24.992Z,3.97
2023-02-28T15:20:28.118Z,4.34
2023-02-28T15:23:32.322Z,4.32
2023-02-28T15:26:35.425Z,4.16
2023-02-28T15:29:58.997Z,3.96
2023-02-28T15:33:22.531Z,3.91
2023-02-28T15:36:32.937Z,3.59
2023-02-28T15:39:43.762Z,3.23
2023-02-28T15:43:01.307Z,3.13
2023-02-28T15:46:11.904Z,3.02
2023-02-28T15:49:21.349Z,3.04
2023-02-28T15:52:30.466Z,2.94
2023-02-28T15:55:32.900Z,2.76
2023-02-28T15:58:37.791Z,2.57
2023-02-28T16:01:40.570Z,2.49
2023-02-28T16:05:11.809Z,2.43
2023-02-28T16:08:17.039Z,2.13
2023-02-28T16:11:20.853Z,1.93
2023-02-28T16:14:33.577Z,1.85
2023-02-28T16:17:39.524Z,1.67
2023-02-28T16:20:42.598Z,1.53
2023-02-28T16:23:44.926Z,1.39
2023-02-28T16:26:49.510Z,1.28
2023-02-28T16:29:51.916Z,1.10
2023-02-28T16:32:55.519Z,0.98
2023-02-28T16:35:57.947Z,0.83
2023-02-28T16:39:00.464Z,0.66
2023-02-28T16:42:03.096Z,0.53
2023-02-28T16:45:05.847Z,0.49
2023-02-28T16:48:13.098Z,0.40
2023-02-28T16:51:17.105Z,0.27
2023-02-28T16:54:19.489Z,0.26
2023-02-28T16:57:24.900Z,0.18
2023-02-28T17:00:29.449Z,0.16
2023-02-28T17:03:33.662Z,0.19
2023-02-28T17:06:36.484Z,0.09
2023-02-28T17:09:42.609Z,-0.04
2023-02-28T17:12:46.455Z,0.03
2023-02-28T17:15:49.604Z,0.01
2023-02-28T17:18:52.568Z,-0.03
2023-02-28T17:21:55.016Z,0.05
2023-02-28T17:25:01.754Z,-0.03
2023-02-28T17:28:04.429Z,0.06
2023-02-28T17:31:06.856Z,0.04
2023-02-28T17:34:09.486Z,0.05
2023-02-28T17:37:11.847Z,0.34
2023-02-28T17:40:20.093Z,0.25
2023-02-28T17:43:22.493Z,0.22
2023-02-28T17:46:26.228Z,0.22
2023-02-28T17:49:28.815Z,0.07
2023-02-28T17:52:32.050Z,0.17
2023-02-28T17:55:35.561Z,0.08
2023-02-28T17:58:38.148Z,-0.12
2023-02-28T18:01:41.019Z,-0.34
2023-02-28T18:04:43.830Z,-0.48
2023-02-28T18:07:46.369Z,-0.59
2023-02-28T18:10:48.936Z,-0.48
2023-02-28T18:13:53.785Z,-0.63
2023-02-28T18:16:57.673Z,-0.56
2023-02-28T18:20:00.430Z,-0.59
2023-02-28T18:23:03.294Z,-0.65
2023-02-28T18:26:09.276Z,-0.29
2023-02-28T18:29:24.433Z,-0.14
2023-02-28T18:32:27.598Z,-0.23
2023-02-28T18:35:37.429Z,-0.25
2023-02-28T18:38:40.463Z,-0.35
2023-02-28T18:41:42.929Z,-0.30
2023-02-28T18:44:45.456Z,-0.34
2023-02-28T18:47:48.184Z,-0.70
2023-02-28T18:50:51.817Z,-0.75
2023-02-28T18:53:54.395Z,-0.81
2023-02-28T18:56:56.798Z,-0.79
2023-02-28T18:59:59.169Z,-0.73
2023-02-28T19:03:01.576Z,-0.68
2023-02-28T19:06:04.060Z,-0.63
2023-02-28T19:09:06.917Z,-0.71
2023-02-28T19:12:09.548Z,-0.73
2023-02-28T19:15:12.927Z,-0.74
2023-02-28T19:18:15.486Z,-0.80
2023-02-28T19:21:19.705Z,-0.90
2023-02-28T19:24:22.022Z,-1.12
2023-02-28T19:27:24.606Z,-1.24
2023-02-28T19:30:26.942Z,-1.32
2023-02-28T19:33:29.923Z,-1.38
2023-02-28T19:36:32.348Z,-1.39
2023-02-28T19:39:41.210Z,-1.60
2023-02-28T19:42:43.731Z,-1.54
2023-02-28T19:45:46.480Z,-1.59
2023-02-28T19:48:48.990Z,-1.66
2023-02-28T19:51:51.292Z,-1.79
2023-02-28T19:54:53.631Z,-1.69
2023-02-28T19:57:56.011Z,-1.58
2023-02-28T20:00:58.546Z,-1.40
2023-02-28T20:04:02.093Z,-1.45
2023-02-28T20:07:04.675Z,-1.61
2023-02-28T20:10:07.631Z,-1.59
2023-02-28T20:13:09.949Z,-1.45
2023-02-28T20:16:14.187Z,-1.42
2023-02-28T20:19:17.351Z,-1.58
2023-02-28T20:22:19.629Z,-1.65
2023-02-28T20:25:22.016Z,-1.63
2023-02-28T20:28:24.495Z,-1.69
2023-02-28T20:31:28.790Z,-1.72
2023-02-28T20:34:31.117Z,-1.60
2023-02-28T20:37:33.420Z,-1.68
2023-02-28T20:40:35.712Z,-1.74
2023-02-28T20:43:38.014Z,-1.74
2023-02-28T20:46:41.730Z,-1.73
2023-02-28T20:49:44.047Z,-1.75
2023-02-28T20:52:46.373Z,-1.69
2023-02-28T20:56:02.725Z,-1.70
2023-02-28T20:59:05.657Z,-1.59
2023-02-28T21:02:08.433Z,-1.70
2023-02-28T21:05:10.909Z,-1.88
2023-02-28T21:08:13.237Z,-1.75
2023-02-28T21:11:18.176Z,-1.82
2023-02-28T21:14:20.534Z,-1.78
2023-02-28T21:17:22.966Z,-1.55
2023-02-28T21:20:25.335Z,-1.40
2023-02-28T21:23:27.733Z,-1.31
2023-02-28T21:26:30.522Z,-1.45
2023-02-28T21:29:33.021Z,-1.64
2023-02-28T21:32:35.492Z,-1.64
2023-02-28T21:35:37.871Z,-1.74
2023-02-28T21:38:41.032Z,-2.09
2023-02-28T21:41:43.722Z,-2.00
2023-02-28T21:44:46.200Z,-1.95
2023-02-28T21:47:48.602Z,-2.01
2023-02-28T21:51:12.206Z,-2.04
2023-02-28T21:54:15.134Z,-2.18
2023-02-28T21:57:17.523Z,-1.74
2023-02-28T22:00:20.639Z,-1.95
2023-02-28T22:03:22.911Z,-2.06
2023-02-28T22:06:30.802Z,-1.92
2023-02-28T22:09:33.535Z,-1.91
2023-02-28T22:12:35.926Z,-1.77
2023-02-28T22:15:38.445Z,-2.06
2023-02-28T22:18:41.271Z,-1.86
2023-02-28T22:21:45.005Z,-1.57
2023-02-28T22:24:47.465Z,-1.62
2023-02-28T22:27:49.853Z,-1.68
2023-02-28T22:30:52.196Z,-2.03
2023-02-28T22:33:57.219Z,-2.14
2023-02-28T22:36:59.684Z,-2.18
2023-02-28T22:40:02.123Z,-1.97
2023-02-28T22:43:06.076Z,-1.72
2023-02-28T22:46:10.898Z,-1.68
2023-02-28T22:49:13.357Z,-2.11
2023-02-28T22:52:15.896Z,-2.16
2023-02-28T22:55:18.217Z,-2.05
2023-02-28T22:58:20.582Z,-1.83
2023-02-28T23:01:26.309Z,-1.95
2023-02-28T23:04:28.838Z,-1.89
2023-02-28T23:07:31.281Z,-1.88
2023-02-28T23:10:33.929Z,-1.84
2023-02-28T23:13:36.901Z,-1.85
2023-02-28T23:16:42.442Z,-1.84
2023-02-28T23:19:44.868Z,-1.78
2023-02-28T23:22:50.637Z,-1.72
2023-02-28T23:25:53.496Z,-1.67
2023-02-28T23:28:55.877Z,-1.67
2023-02-28T23:31:58.511Z,-1.74
2023-02-28T23:35:00.961Z,-1.75
2023-02-28T23:38:03.338Z,-1.79
2023-02-28T23:41:12.735Z,-1.85
2023-02-28T23:44:17.167Z,-2.03
2023-02-28T23:47:19.623Z,-2.17
2023-02-28T23:50:21.909Z,-1.91
2023-02-28T23:53:25.185Z,-1.91
2023-02-28T23:56:27.492Z,-1.69
2023-02-28T23:59:29.906Z,-1.69
